sensor_id;sensor_type;location;lat;lon;timestamp;pressure;altitude;pressure_sealevel;temperature;humidity
64294;BME280;50636;45.596;5.258;2022-07-17T00:00:59;99079.13;;;26.03;30.43
64294;BME280;50636;45.596;5.258;2022-07-17T00:03:26;99076.84;;;25.97;30.58
64294;BME280;50636;45.596;5.258;2022-07-17T00:05:52;99084.31;;;26.00;30.61
64294;BME280;50636;45.596;5.258;2022-07-17T00:08:18;99082.84;;;26.07;30.43
64294;BME280;50636;45.596;5.258;2022-07-17T00:10:43;99079.28;;;26.12;30.47
64294;BME280;50636;45.596;5.258;2022-07-17T00:13:09;99075.75;;;26.30;30.10
64294;BME280;50636;45.596;5.258;2022-07-17T00:15:35;99077.09;;;26.47;30.13
64294;BME280;50636;45.596;5.258;2022-07-17T00:18:02;99070.81;;;26.51;30.00
64294;BME280;50636;45.596;5.258;2022-07-17T00:20:29;99075.31;;;26.42;29.85
64294;BME280;50636;45.596;5.258;2022-07-17T00:22:55;99072.28;;;26.44;29.85
64294;BME280;50636;45.596;5.258;2022-07-17T00:25:22;99070.09;;;26.46;29.69
64294;BME280;50636;45.596;5.258;2022-07-17T00:27:48;99070.09;;;26.32;29.77
64294;BME280;50636;45.596;5.258;2022-07-17T00:30:14;99069.28;;;26.31;29.96
64294;BME280;50636;45.596;5.258;2022-07-17T00:32:41;99067.28;;;26.37;30.00
64294;BME280;50636;45.596;5.258;2022-07-17T00:35:07;99069.69;;;26.39;29.95
64294;BME280;50636;45.596;5.258;2022-07-17T00:37:40;99073.22;;;26.53;29.84
64294;BME280;50636;45.596;5.258;2022-07-17T00:40:08;99063.19;;;26.59;29.52
64294;BME280;50636;45.596;5.258;2022-07-17T00:42:35;99066.81;;;26.49;29.56
64294;BME280;50636;45.596;5.258;2022-07-17T00:45:00;99070.78;;;26.38;30.03
64294;BME280;50636;45.596;5.258;2022-07-17T00:47:26;99068.22;;;26.14;30.02
64294;BME280;50636;45.596;5.258;2022-07-17T00:49:52;99070.06;;;25.80;30.23
64294;BME280;50636;45.596;5.258;2022-07-17T00:52:18;99069.41;;;25.50;31.01
64294;BME280;50636;45.596;5.258;2022-07-17T00:54:46;99066.69;;;25.31;31.38
64294;BME280;50636;45.596;5.258;2022-07-17T00:57:14;99077.59;;;25.16;31.77
64294;BME280;50636;45.596;5.258;2022-07-17T00:59:41;99071.25;;;25.07;32.16
64294;BME280;50636;45.596;5.258;2022-07-17T01:02:12;99069.19;;;24.99;32.85
64294;BME280;50636;45.596;5.258;2022-07-17T01:04:40;99072.88;;;24.79;33.89
64294;BME280;50636;45.596;5.258;2022-07-17T01:07:06;99073.75;;;24.45;34.82
64294;BME280;50636;45.596;5.258;2022-07-17T01:09:33;99068.19;;;24.02;35.35
64294;BME280;50636;45.596;5.258;2022-07-17T01:11:59;99065.94;;;23.69;35.31
64294;BME280;50636;45.596;5.258;2022-07-17T01:14:26;99071.38;;;23.54;36.36
64294;BME280;50636;45.596;5.258;2022-07-17T01:16:54;99072.25;;;23.44;36.07
64294;BME280;50636;45.596;5.258;2022-07-17T01:19:21;99065.88;;;23.35;36.70
64294;BME280;50636;45.596;5.258;2022-07-17T01:21:48;99069.06;;;23.32;36.49
64294;BME280;50636;45.596;5.258;2022-07-17T01:24:15;99067.19;;;23.38;36.30
64294;BME280;50636;45.596;5.258;2022-07-17T01:26:45;99069.53;;;23.55;35.75
64294;BME280;50636;45.596;5.258;2022-07-17T01:29:12;99072.59;;;23.82;35.01
64294;BME280;50636;45.596;5.258;2022-07-17T01:31:39;99071.47;;;23.93;34.99
64294;BME280;50636;45.596;5.258;2022-07-17T01:34:06;99072.22;;;23.99;34.68
64294;BME280;50636;45.596;5.258;2022-07-17T01:36:33;99066.78;;;24.09;34.43
64294;BME280;50636;45.596;5.258;2022-07-17T01:38:58;99072.06;;;24.20;34.58
64294;BME280;50636;45.596;5.258;2022-07-17T01:41:24;99081.59;;;24.36;34.02
64294;BME280;50636;45.596;5.258;2022-07-17T01:43:50;99079.41;;;24.38;33.88
64294;BME280;50636;45.596;5.258;2022-07-17T01:46:15;99078.00;;;24.17;34.83
64294;BME280;50636;45.596;5.258;2022-07-17T01:48:41;99071.72;;;23.92;34.68
64294;BME280;50636;45.596;5.258;2022-07-17T01:51:07;99074.50;;;23.71;35.67
64294;BME280;50636;45.596;5.258;2022-07-17T01:53:33;99079.47;;;23.49;36.48
64294;BME280;50636;45.596;5.258;2022-07-17T01:55:59;99081.72;;;23.26;37.59
64294;BME280;50636;45.596;5.258;2022-07-17T01:58:24;99087.38;;;22.99;38.28
64294;BME280;50636;45.596;5.258;2022-07-17T02:00:50;99082.63;;;22.65;38.34
64294;BME280;50636;45.596;5.258;2022-07-17T02:03:17;99089.88;;;22.39;38.26
64294;BME280;50636;45.596;5.258;2022-07-17T02:05:43;99088.28;;;22.43;37.93
64294;BME280;50636;45.596;5.258;2022-07-17T02:08:08;99082.91;;;22.69;37.60
64294;BME280;50636;45.596;5.258;2022-07-17T02:10:34;99076.72;;;22.94;36.72
64294;BME280;50636;45.596;5.258;2022-07-17T02:13:00;99090.84;;;23.00;38.01
64294;BME280;50636;45.596;5.258;2022-07-17T02:15:26;99086.63;;;22.88;38.98
64294;BME280;50636;45.596;5.258;2022-07-17T02:17:52;99088.78;;;22.76;38.22
64294;BME280;50636;45.596;5.258;2022-07-17T02:20:18;99084.22;;;22.71;38.48
64294;BME280;50636;45.596;5.258;2022-07-17T02:22:44;99084.50;;;22.75;39.39
64294;BME280;50636;45.596;5.258;2022-07-17T02:25:11;99084.78;;;22.63;39.43
64294;BME280;50636;45.596;5.258;2022-07-17T02:27:38;99086.13;;;22.35;40.02
64294;BME280;50636;45.596;5.258;2022-07-17T02:30:06;99085.03;;;22.00;40.57
64294;BME280;50636;45.596;5.258;2022-07-17T02:32:32;99079.34;;;21.71;41.18
64294;BME280;50636;45.596;5.258;2022-07-17T02:34:58;99088.66;;;21.48;41.79
64294;BME280;50636;45.596;5.258;2022-07-17T02:37:23;99089.09;;;21.34;42.14
64294;BME280;50636;45.596;5.258;2022-07-17T02:39:49;99083.97;;;21.23;42.76
64294;BME280;50636;45.596;5.258;2022-07-17T02:42:21;99083.31;;;21.00;43.18
64294;BME280;50636;45.596;5.258;2022-07-17T02:44:48;99083.03;;;20.97;43.25
64294;BME280;50636;45.596;5.258;2022-07-17T02:47:29;99085.19;;;21.00;43.71
64294;BME280;50636;45.596;5.258;2022-07-17T02:49:55;99085.00;;;21.11;43.38
64294;BME280;50636;45.596;5.258;2022-07-17T02:52:21;99091.38;;;21.05;43.20
64294;BME280;50636;45.596;5.258;2022-07-17T02:54:47;99081.16;;;20.92;43.68
64294;BME280;50636;45.596;5.258;2022-07-17T02:57:13;99087.78;;;20.84;43.71
64294;BME280;50636;45.596;5.258;2022-07-17T02:59:39;99092.56;;;20.82;44.18
64294;BME280;50636;45.596;5.258;2022-07-17T03:02:04;99093.94;;;20.85;44.38
64294;BME280;50636;45.596;5.258;2022-07-17T03:04:30;99093.66;;;20.86;44.28
64294;BME280;50636;45.596;5.258;2022-07-17T03:06:56;99092.59;;;20.87;44.13
64294;BME280;50636;45.596;5.258;2022-07-17T03:09:22;99097.09;;;20.82;44.16
64294;BME280;50636;45.596;5.258;2022-07-17T03:11:48;99092.19;;;20.63;44.44
64294;BME280;50636;45.596;5.258;2022-07-17T03:14:13;99101.84;;;20.42;44.82
64294;BME280;50636;45.596;5.258;2022-07-17T03:16:39;99099.88;;;20.27;45.51
64294;BME280;50636;45.596;5.258;2022-07-17T03:19:05;99105.09;;;20.17;45.98
64294;BME280;50636;45.596;5.258;2022-07-17T03:21:30;99102.66;;;20.10;45.77
64294;BME280;50636;45.596;5.258;2022-07-17T03:23:56;99094.91;;;20.09;45.69
64294;BME280;50636;45.596;5.258;2022-07-17T03:26:22;99101.59;;;20.11;45.22
64294;BME280;50636;45.596;5.258;2022-07-17T03:28:47;99102.78;;;20.26;44.65
64294;BME280;50636;45.596;5.258;2022-07-17T03:31:13;99094.66;;;20.43;44.35
64294;BME280;50636;45.596;5.258;2022-07-17T03:33:39;99100.97;;;20.64;43.57
64294;BME280;50636;45.596;5.258;2022-07-17T03:36:04;99098.97;;;20.86;43.13
64294;BME280;50636;45.596;5.258;2022-07-17T03:38:32;99099.03;;;20.91;43.48
64294;BME280;50636;45.596;5.258;2022-07-17T03:41:00;99102.25;;;20.93;43.30
64294;BME280;50636;45.596;5.258;2022-07-17T03:43:26;99098.22;;;20.91;42.98
64294;BME280;50636;45.596;5.258;2022-07-17T03:45:51;99096.38;;;20.97;42.26
64294;BME280;50636;45.596;5.258;2022-07-17T03:48:17;99099.63;;;21.04;42.44
64294;BME280;50636;45.596;5.258;2022-07-17T03:50:43;99102.25;;;20.93;42.85
64294;BME280;50636;45.596;5.258;2022-07-17T03:53:09;99097.28;;;20.70;43.08
64294;BME280;50636;45.596;5.258;2022-07-17T03:55:35;99096.88;;;20.51;43.37
64294;BME280;50636;45.596;5.258;2022-07-17T03:58:01;99106.03;;;20.33;44.05
64294;BME280;50636;45.596;5.258;2022-07-17T04:00:27;99098.47;;;20.20;44.35
64294;BME280;50636;45.596;5.258;2022-07-17T04:02:52;99098.47;;;20.20;45.25
64294;BME280;50636;45.596;5.258;2022-07-17T04:05:18;99104.69;;;19.98;45.84
64294;BME280;50636;45.596;5.258;2022-07-17T04:07:44;99110.88;;;19.82;45.96
64294;BME280;50636;45.596;5.258;2022-07-17T04:10:12;99106.06;;;19.79;45.91
64294;BME280;50636;45.596;5.258;2022-07-17T04:12:38;99114.72;;;19.69;46.31
64294;BME280;50636;45.596;5.258;2022-07-17T04:15:05;99111.94;;;19.59;46.72
64294;BME280;50636;45.596;5.258;2022-07-17T04:17:31;99112.28;;;19.67;46.46
64294;BME280;50636;45.596;5.258;2022-07-17T04:19:57;99113.91;;;19.68;46.53
64294;BME280;50636;45.596;5.258;2022-07-17T04:22:23;99122.06;;;19.62;46.89
64294;BME280;50636;45.596;5.258;2022-07-17T04:24:49;99122.34;;;19.60;47.62
64294;BME280;50636;45.596;5.258;2022-07-17T04:27:15;99115.84;;;19.73;46.97
64294;BME280;50636;45.596;5.258;2022-07-17T04:29:41;99114.38;;;19.82;46.50
64294;BME280;50636;45.596;5.258;2022-07-17T04:32:07;99113.59;;;19.87;46.47
64294;BME280;50636;45.596;5.258;2022-07-17T04:34:33;99117.44;;;19.96;45.95
64294;BME280;50636;45.596;5.258;2022-07-17T04:37:00;99115.22;;;20.15;45.43
64294;BME280;50636;45.596;5.258;2022-07-17T04:39:26;99113.81;;;20.67;44.77
64294;BME280;50636;45.596;5.258;2022-07-17T04:41:52;99111.34;;;21.50;42.67
64294;BME280;50636;45.596;5.258;2022-07-17T04:44:18;99105.38;;;22.47;40.31
64294;BME280;50636;45.596;5.258;2022-07-17T04:46:44;99100.94;;;23.39;38.47
64294;BME280;50636;45.596;5.258;2022-07-17T04:49:10;99105.25;;;23.95;37.37
64294;BME280;50636;45.596;5.258;2022-07-17T04:51:36;99106.00;;;24.35;36.63
64294;BME280;50636;45.596;5.258;2022-07-17T04:54:01;99115.47;;;24.61;36.29
64294;BME280;50636;45.596;5.258;2022-07-17T04:56:27;99109.03;;;24.91;35.97
64294;BME280;50636;45.596;5.258;2022-07-17T04:58:53;99115.97;;;24.92;35.89
64294;BME280;50636;45.596;5.258;2022-07-17T05:01:18;99111.34;;;24.98;35.65
64294;BME280;50636;45.596;5.258;2022-07-17T05:03:44;99109.16;;;25.05;35.35
64294;BME280;50636;45.596;5.258;2022-07-17T05:06:10;99113.81;;;25.19;34.88
64294;BME280;50636;45.596;5.258;2022-07-17T05:08:36;99115.16;;;25.64;34.26
64294;BME280;50636;45.596;5.258;2022-07-17T05:11:02;99112.13;;;26.28;33.08
64294;BME280;50636;45.596;5.258;2022-07-17T05:13:28;99116.47;;;26.89;31.69
64294;BME280;50636;45.596;5.258;2022-07-17T05:15:53;99116.53;;;27.45;30.81
64294;BME280;50636;45.596;5.258;2022-07-17T05:18:19;99110.91;;;28.05;30.27
64294;BME280;50636;45.596;5.258;2022-07-17T05:20:45;99114.31;;;28.42;29.81
64294;BME280;50636;45.596;5.258;2022-07-17T05:23:10;99110.09;;;28.81;28.67
64294;BME280;50636;45.596;5.258;2022-07-17T05:25:36;99109.53;;;28.93;28.56
64294;BME280;50636;45.596;5.258;2022-07-17T05:28:02;99110.06;;;28.73;28.66
64294;BME280;50636;45.596;5.258;2022-07-17T05:30:28;99120.13;;;28.81;28.69
64294;BME280;50636;45.596;5.258;2022-07-17T05:32:54;99124.06;;;29.55;28.01
64294;BME280;50636;45.596;5.258;2022-07-17T05:35:20;99129.69;;;30.45;26.62
64294;BME280;50636;45.596;5.258;2022-07-17T05:37:46;99123.72;;;30.70;26.08
64294;BME280;50636;45.596;5.258;2022-07-17T05:40:12;99126.50;;;30.17;26.53
64294;BME280;50636;45.596;5.258;2022-07-17T05:42:38;99133.34;;;30.50;25.97
64294;BME280;50636;45.596;5.258;2022-07-17T05:45:04;99129.72;;;30.84;25.66
64294;BME280;50636;45.596;5.258;2022-07-17T05:47:30;99137.66;;;31.36;25.10
64294;BME280;50636;45.596;5.258;2022-07-17T05:49:55;99135.59;;;32.14;23.86
64294;BME280;50636;45.596;5.258;2022-07-17T05:52:21;99138.94;;;32.77;23.41
64294;BME280;50636;45.596;5.258;2022-07-17T05:54:47;99136.72;;;33.53;22.17
64294;BME280;50636;45.596;5.258;2022-07-17T05:57:13;99144.13;;;33.93;21.92
64294;BME280;50636;45.596;5.258;2022-07-17T05:59:38;99138.13;;;34.72;21.11
64294;BME280;50636;45.596;5.258;2022-07-17T06:02:04;99140.09;;;35.19;20.72
64294;BME280;50636;45.596;5.258;2022-07-17T06:04:30;99131.00;;;35.31;20.34
64294;BME280;50636;45.596;5.258;2022-07-17T06:06:56;99134.72;;;35.58;20.02
64294;BME280;50636;45.596;5.258;2022-07-17T06:09:22;99137.41;;;36.13;19.49
64294;BME280;50636;45.596;5.258;2022-07-17T06:11:47;99142.00;;;36.48;19.09
64294;BME280;50636;45.596;5.258;2022-07-17T06:14:13;99140.09;;;36.72;19.03
64294;BME280;50636;45.596;5.258;2022-07-17T06:16:40;99146.25;;;37.11;18.68
64294;BME280;50636;45.596;5.258;2022-07-17T06:19:06;99145.97;;;37.47;18.09
64294;BME280;50636;45.596;5.258;2022-07-17T06:21:31;99139.88;;;37.57;17.63
64294;BME280;50636;45.596;5.258;2022-07-17T06:23:57;99142.81;;;37.45;17.81
64294;BME280;50636;45.596;5.258;2022-07-17T06:26:23;99135.16;;;37.84;17.52
64294;BME280;50636;45.596;5.258;2022-07-17T06:28:49;99134.00;;;38.19;17.09
64294;BME280;50636;45.596;5.258;2022-07-17T06:31:14;99136.28;;;38.51;16.72
64294;BME280;50636;45.596;5.258;2022-07-17T06:33:40;99136.09;;;38.70;16.80
64294;BME280;50636;45.596;5.258;2022-07-17T06:36:06;99134.78;;;38.98;15.98
64294;BME280;50636;45.596;5.258;2022-07-17T06:38:33;99132.91;;;39.13;16.07
64294;BME280;50636;45.596;5.258;2022-07-17T06:40:59;99128.75;;;39.37;15.91
64294;BME280;50636;45.596;5.258;2022-07-17T06:43:25;99131.19;;;39.46;15.76
64294;BME280;50636;45.596;5.258;2022-07-17T06:45:51;99132.00;;;39.53;15.92
64294;BME280;50636;45.596;5.258;2022-07-17T06:48:22;99145.38;;;39.62;15.31
64294;BME280;50636;45.596;5.258;2022-07-17T06:50:51;99137.31;;;39.91;15.24
64294;BME280;50636;45.596;5.258;2022-07-17T06:53:17;99145.22;;;40.07;15.16
64294;BME280;50636;45.596;5.258;2022-07-17T06:55:42;99154.56;;;39.88;15.48
64294;BME280;50636;45.596;5.258;2022-07-17T06:58:08;99151.38;;;39.79;15.79
64294;BME280;50636;45.596;5.258;2022-07-17T07:00:33;99150.06;;;39.54;15.62
64294;BME280;50636;45.596;5.258;2022-07-17T07:02:59;99143.53;;;39.81;15.66
64294;BME280;50636;45.596;5.258;2022-07-17T07:05:25;99150.72;;;40.10;15.39
64294;BME280;50636;45.596;5.258;2022-07-17T07:07:51;99144.50;;;40.31;15.46
64294;BME280;50636;45.596;5.258;2022-07-17T07:10:17;99149.22;;;40.38;15.13
64294;BME280;50636;45.596;5.258;2022-07-17T07:12:42;99159.91;;;40.61;14.80
64294;BME280;50636;45.596;5.258;2022-07-17T07:15:09;99158.31;;;41.07;14.48
64294;BME280;50636;45.596;5.258;2022-07-17T07:17:35;99156.34;;;41.32;14.24
64294;BME280;50636;45.596;5.258;2022-07-17T07:20:03;99165.00;;;41.38;14.08
64294;BME280;50636;45.596;5.258;2022-07-17T07:22:32;99160.28;;;41.39;14.15
64294;BME280;50636;45.596;5.258;2022-07-17T07:24:58;99161.09;;;41.36;14.50
64294;BME280;50636;45.596;5.258;2022-07-17T07:27:24;99156.78;;;41.24;14.53
64294;BME280;50636;45.596;5.258;2022-07-17T07:29:50;99166.97;;;41.16;14.38
64294;BME280;50636;45.596;5.258;2022-07-17T07:32:16;99172.09;;;40.78;14.72
64294;BME280;50636;45.596;5.258;2022-07-17T07:34:41;99171.13;;;40.09;15.80
64294;BME280;50636;45.596;5.258;2022-07-17T07:37:07;99167.72;;;39.53;15.68
64294;BME280;50636;45.596;5.258;2022-07-17T07:39:36;99168.06;;;38.96;16.23
64294;BME280;50636;45.596;5.258;2022-07-17T07:42:02;99166.50;;;38.54;16.76
64294;BME280;50636;45.596;5.258;2022-07-17T07:44:28;99169.78;;;38.00;17.88
64294;BME280;50636;45.596;5.258;2022-07-17T07:46:54;99180.94;;;37.57;18.19
64294;BME280;50636;45.596;5.258;2022-07-17T07:49:23;99179.47;;;37.36;18.44
64294;BME280;50636;45.596;5.258;2022-07-17T07:51:48;99179.31;;;37.52;18.18
64294;BME280;50636;45.596;5.258;2022-07-17T07:54:14;99178.88;;;37.77;17.73
64294;BME280;50636;45.596;5.258;2022-07-17T07:56:40;99175.16;;;38.23;17.59
64294;BME280;50636;45.596;5.258;2022-07-17T07:59:05;99171.16;;;38.88;16.54
64294;BME280;50636;45.596;5.258;2022-07-17T08:01:31;99170.91;;;39.59;16.15
64294;BME280;50636;45.596;5.258;2022-07-17T08:03:57;99173.59;;;40.36;15.87
64294;BME280;50636;45.596;5.258;2022-07-17T08:06:22;99176.81;;;40.88;14.76
64294;BME280;50636;45.596;5.258;2022-07-17T08:08:48;99181.94;;;41.40;14.81
64294;BME280;50636;45.596;5.258;2022-07-17T08:11:16;99176.22;;;42.01;14.23
64294;BME280;50636;45.596;5.258;2022-07-17T08:13:42;99183.19;;;42.35;13.90
64294;BME280;50636;45.596;5.258;2022-07-17T08:16:08;99175.88;;;42.69;13.62
64294;BME280;50636;45.596;5.258;2022-07-17T08:18:34;99178.50;;;42.87;13.28
64294;BME280;50636;45.596;5.258;2022-07-17T08:20:59;99183.00;;;43.16;13.29
64294;BME280;50636;45.596;5.258;2022-07-17T08:23:25;99179.16;;;43.47;12.58
64294;BME280;50636;45.596;5.258;2022-07-17T08:25:51;99171.44;;;43.66;12.72
64294;BME280;50636;45.596;5.258;2022-07-17T08:28:17;99171.06;;;43.67;12.91
64294;BME280;50636;45.596;5.258;2022-07-17T08:30:42;99168.09;;;43.85;13.11
64294;BME280;50636;45.596;5.258;2022-07-17T08:33:09;99168.25;;;43.71;13.18
64294;BME280;50636;45.596;5.258;2022-07-17T08:35:36;99177.41;;;42.74;13.53
64294;BME280;50636;45.596;5.258;2022-07-17T08:38:02;99174.13;;;42.34;13.73
64294;BME280;50636;45.596;5.258;2022-07-17T08:40:31;99170.81;;;43.09;12.92
64294;BME280;50636;45.596;5.258;2022-07-17T08:42:59;99173.84;;;43.64;13.08
64294;BME280;50636;45.596;5.258;2022-07-17T08:45:25;99177.75;;;43.70;12.66
64294;BME280;50636;45.596;5.258;2022-07-17T08:47:52;99171.22;;;43.87;12.52
64294;BME280;50636;45.596;5.258;2022-07-17T08:50:25;99184.69;;;44.16;12.57
64294;BME280;50636;45.596;5.258;2022-07-17T08:52:52;99181.63;;;43.38;13.21
64294;BME280;50636;45.596;5.258;2022-07-17T08:55:17;99184.44;;;42.86;13.41
64294;BME280;50636;45.596;5.258;2022-07-17T08:57:44;99178.78;;;43.45;12.81
64294;BME280;50636;45.596;5.258;2022-07-17T09:00:16;99184.16;;;44.25;12.26
64294;BME280;50636;45.596;5.258;2022-07-17T09:05:24;99192.63;;;44.14;12.08
64294;BME280;50636;45.596;5.258;2022-07-17T09:07:51;99191.69;;;44.24;12.31
64294;BME280;50636;45.596;5.258;2022-07-17T09:10:17;99191.38;;;44.46;12.36
64294;BME280;50636;45.596;5.258;2022-07-17T09:12:43;99185.47;;;44.71;11.85
64294;BME280;50636;45.596;5.258;2022-07-17T09:15:16;99174.31;;;44.51;12.03
64294;BME280;50636;45.596;5.258;2022-07-17T09:17:53;99178.25;;;44.54;12.02
64294;BME280;50636;45.596;5.258;2022-07-17T09:20:20;99184.06;;;44.59;11.68
64294;BME280;50636;45.596;5.258;2022-07-17T09:23:01;99193.03;;;45.41;11.85
64294;BME280;50636;45.596;5.258;2022-07-17T09:25:36;99191.75;;;45.26;11.45
64294;BME280;50636;45.596;5.258;2022-07-17T09:28:06;99191.81;;;45.42;11.42
64294;BME280;50636;45.596;5.258;2022-07-17T09:30:32;99193.88;;;45.38;11.33
64294;BME280;50636;45.596;5.258;2022-07-17T09:33:00;99192.19;;;45.44;10.89
64294;BME280;50636;45.596;5.258;2022-07-17T09:35:25;99192.66;;;45.39;11.13
64294;BME280;50636;45.596;5.258;2022-07-17T09:37:53;99190.59;;;45.00;11.40
64294;BME280;50636;45.596;5.258;2022-07-17T09:40:21;99185.41;;;45.02;11.06
64294;BME280;50636;45.596;5.258;2022-07-17T09:43:07;99189.06;;;44.72;11.73
64294;BME280;50636;45.596;5.258;2022-07-17T09:45:35;99192.19;;;45.44;10.83
64294;BME280;50636;45.596;5.258;2022-07-17T09:48:03;99188.09;;;45.29;11.40
64294;BME280;50636;45.596;5.258;2022-07-17T09:50:29;99194.44;;;45.50;11.20
64294;BME280;50636;45.596;5.258;2022-07-17T09:52:57;99195.16;;;45.54;11.09
64294;BME280;50636;45.596;5.258;2022-07-17T09:55:32;99189.25;;;45.52;11.01
64294;BME280;50636;45.596;5.258;2022-07-17T09:57:59;99191.34;;;45.24;11.23
64294;BME280;50636;45.596;5.258;2022-07-17T10:00:26;99192.28;;;44.94;10.97
64294;BME280;50636;45.596;5.258;2022-07-17T10:02:52;99192.91;;;44.78;11.39
64294;BME280;50636;45.596;5.258;2022-07-17T10:05:18;99191.81;;;44.72;11.82
64294;BME280;50636;45.596;5.258;2022-07-17T10:07:46;99201.13;;;44.27;11.79
64294;BME280;50636;45.596;5.258;2022-07-17T10:10:14;99193.41;;;44.15;12.21
64294;BME280;50636;45.596;5.258;2022-07-17T10:12:46;99196.66;;;44.10;11.73
64294;BME280;50636;45.596;5.258;2022-07-17T10:15:12;99186.19;;;44.52;11.43
64294;BME280;50636;45.596;5.258;2022-07-17T10:17:38;99202.66;;;44.86;11.76
64294;BME280;50636;45.596;5.258;2022-07-17T10:20:04;99200.06;;;45.26;11.44
64294;BME280;50636;45.596;5.258;2022-07-17T10:22:42;99208.19;;;45.57;10.97
64294;BME280;50636;45.596;5.258;2022-07-17T10:25:13;99196.31;;;45.56;10.60
64294;BME280;50636;45.596;5.258;2022-07-17T10:27:50;99197.66;;;45.24;10.75
64294;BME280;50636;45.596;5.258;2022-07-17T10:30:25;99197.38;;;45.42;10.89
64294;BME280;50636;45.596;5.258;2022-07-17T10:32:57;99196.00;;;45.74;10.53
64294;BME280;50636;45.596;5.258;2022-07-17T10:35:24;99198.84;;;46.27;10.48
64294;BME280;50636;45.596;5.258;2022-07-17T10:37:51;99197.47;;;46.35;10.42
64294;BME280;50636;45.596;5.258;2022-07-17T10:40:23;99191.91;;;46.35;10.61
64294;BME280;50636;45.596;5.258;2022-07-17T10:47:52;99192.66;;;45.39;11.05
64294;BME280;50636;45.596;5.258;2022-07-17T10:50:21;99183.56;;;45.15;11.73
64294;BME280;50636;45.596;5.258;2022-07-17T10:53:02;99180.41;;;44.93;11.57
64294;BME280;50636;45.596;5.258;2022-07-17T10:55:28;99178.69;;;44.21;12.37
64294;BME280;50636;45.596;5.258;2022-07-17T10:57:55;99193.56;;;44.00;11.82
64294;BME280;50636;45.596;5.258;2022-07-17T11:00:21;99179.22;;;44.40;11.60
64294;BME280;50636;45.596;5.258;2022-07-17T11:02:47;99186.94;;;44.79;11.78
64294;BME280;50636;45.596;5.258;2022-07-17T11:05:14;99179.31;;;45.11;11.44
64294;BME280;50636;45.596;5.258;2022-07-17T11:07:53;99172.91;;;45.14;11.08
64294;BME280;50636;45.596;5.258;2022-07-17T11:10:21;99181.72;;;45.32;11.17
64294;BME280;50636;45.596;5.258;2022-07-17T11:12:47;99166.47;;;45.20;11.34
64294;BME280;50636;45.596;5.258;2022-07-17T11:15:13;99165.94;;;44.82;11.80
64294;BME280;50636;45.596;5.258;2022-07-17T11:17:44;99172.94;;;44.63;11.58
64294;BME280;50636;45.596;5.258;2022-07-17T11:20:10;99160.78;;;44.30;12.12
64294;BME280;50636;45.596;5.258;2022-07-17T11:22:36;99163.59;;;44.26;12.20
64294;BME280;50636;45.596;5.258;2022-07-17T11:25:04;99167.94;;;44.27;12.11
64294;BME280;50636;45.596;5.258;2022-07-17T11:27:30;99169.94;;;44.54;11.68
64294;BME280;50636;45.596;5.258;2022-07-17T11:29:58;99169.38;;;44.35;12.25
64294;BME280;50636;45.596;5.258;2022-07-17T11:32:31;99172.78;;;43.88;12.32
64294;BME280;50636;45.596;5.258;2022-07-17T11:34:57;99174.97;;;44.01;12.46
64294;BME280;50636;45.596;5.258;2022-07-17T11:37:28;99173.16;;;44.21;12.05
64294;BME280;50636;45.596;5.258;2022-07-17T11:39:55;99174.00;;;44.45;12.40
64294;BME280;50636;45.596;5.258;2022-07-17T11:42:22;99172.28;;;44.55;12.19
64294;BME280;50636;45.596;5.258;2022-07-17T11:44:55;99162.53;;;44.47;12.24
64294;BME280;50636;45.596;5.258;2022-07-17T11:47:23;99162.09;;;44.21;12.63
64294;BME280;50636;45.596;5.258;2022-07-17T11:49:50;99162.84;;;44.25;12.59
64294;BME280;50636;45.596;5.258;2022-07-17T11:52:18;99153.28;;;44.30;12.70
64294;BME280;50636;45.596;5.258;2022-07-17T11:54:50;99151.16;;;44.65;12.32
64294;BME280;50636;45.596;5.258;2022-07-17T11:57:18;99160.38;;;45.29;11.67
64294;BME280;50636;45.596;5.258;2022-07-17T11:59:44;99157.84;;;45.38;11.86
64294;BME280;50636;45.596;5.258;2022-07-17T12:02:13;99159.34;;;45.19;12.03
64294;BME280;50636;45.596;5.258;2022-07-17T12:04:57;99148.31;;;44.96;12.46
64294;BME280;50636;45.596;5.258;2022-07-17T12:07:27;99154.13;;;44.78;12.26
64294;BME280;50636;45.596;5.258;2022-07-17T12:10:12;99155.88;;;44.68;12.07
64294;BME280;50636;45.596;5.258;2022-07-17T12:12:39;99151.38;;;44.78;12.13
64294;BME280;50636;45.596;5.258;2022-07-17T12:15:05;99157.25;;;44.80;12.25
64294;BME280;50636;45.596;5.258;2022-07-17T12:17:40;99151.16;;;44.65;12.45
64294;BME280;50636;45.596;5.258;2022-07-17T12:20:07;99150.69;;;44.43;12.55
64294;BME280;50636;45.596;5.258;2022-07-17T12:22:47;99150.41;;;44.06;12.74
64294;BME280;50636;45.596;5.258;2022-07-17T12:25:26;99149.91;;;43.84;12.37
64294;BME280;50636;45.596;5.258;2022-07-17T12:27:52;99152.81;;;43.74;12.40
64294;BME280;50636;45.596;5.258;2022-07-17T12:30:19;99149.50;;;43.52;12.87
64294;BME280;50636;45.596;5.258;2022-07-17T12:32:46;99145.88;;;43.55;12.93
64294;BME280;50636;45.596;5.258;2022-07-17T12:35:15;99147.09;;;43.16;12.79
64294;BME280;50636;45.596;5.258;2022-07-17T12:37:41;99151.50;;;43.09;13.07
64294;BME280;50636;45.596;5.258;2022-07-17T12:40:08;99147.34;;;42.91;13.06
64294;BME280;50636;45.596;5.258;2022-07-17T12:42:34;99144.81;;;43.07;13.33
64294;BME280;50636;45.596;5.258;2022-07-17T12:45:00;99133.94;;;43.31;13.35
64294;BME280;50636;45.596;5.258;2022-07-17T12:47:27;99127.25;;;43.28;13.23
64294;BME280;50636;45.596;5.258;2022-07-17T12:49:53;99128.50;;;43.20;13.67
64294;BME280;50636;45.596;5.258;2022-07-17T12:52:19;99139.84;;;42.91;13.79
64294;BME280;50636;45.596;5.258;2022-07-17T12:54:45;99144.28;;;42.74;14.05
64294;BME280;50636;45.596;5.258;2022-07-17T12:57:10;99131.56;;;42.28;14.17
64294;BME280;50636;45.596;5.258;2022-07-17T12:59:36;99134.56;;;41.81;14.52
64294;BME280;50636;45.596;5.258;2022-07-17T13:02:02;99133.44;;;41.57;14.85
64294;BME280;50636;45.596;5.258;2022-07-17T13:04:27;99129.19;;;41.31;15.11
64294;BME280;50636;45.596;5.258;2022-07-17T13:06:53;99118.25;;;40.91;15.42